sensor_id;sensor_type;location;lat;lon;timestamp;P1;durP1;ratioP1;P2;durP2;ratioP2
81912;SDS011;71377;50.698;7.164;2023-09-07T00:01:14;5.32;;;4.75;;
81912;SDS011;71377;50.698;7.164;2023-09-07T00:03:40;7.22;;;4.85;;
81912;SDS011;71377;50.698;7.164;2023-09-07T00:06:08;7.47;;;5.32;;
81912;SDS011;71377;50.698;7.164;2023-09-07T00:08:35;5.70;;;4.97;;
81912;SDS011;71377;50.698;7.164;2023-09-07T00:11:08;6.65;;;5.13;;
81912;SDS011;71377;50.698;7.164;2023-09-07T00:13:36;6.03;;;5.15;;
81912;SDS011;71377;50.698;7.164;2023-09-07T00:16:02;8.15;;;4.82;;
81912;SDS011;71377;50.698;7.164;2023-09-07T00:18:30;10.38;;;5.18;;
81912;SDS011;71377;50.698;7.164;2023-09-07T00:20:58;9.48;;;5.13;;
81912;SDS011;71377;50.698;7.164;2023-09-07T00:23:25;6.65;;;4.88;;
81912;SDS011;71377;50.698;7.164;2023-09-07T00:25:52;5.38;;;4.63;;
81912;SDS011;71377;50.698;7.164;2023-09-07T00:28:19;6.47;;;4.63;;
81912;SDS011;71377;50.698;7.164;2023-09-07T00:30:45;8.85;;;4.72;;
81912;SDS011;71377;50.698;7.164;2023-09-07T00:33:12;11.40;;;5.50;;
81912;SDS011;71377;50.698;7.164;2023-09-07T00:35:41;7.03;;;4.80;;
81912;SDS011;71377;50.698;7.164;2023-09-07T00:38:07;7.07;;;5.47;;
81912;SDS011;71377;50.698;7.164;2023-09-07T00:40:34;10.68;;;5.32;;
81912;SDS011;71377;50.698;7.164;2023-09-07T00:43:01;5.88;;;4.93;;
81912;SDS011;71377;50.698;7.164;2023-09-07T00:45:27;6.38;;;5.05;;
81912;SDS011;71377;50.698;7.164;2023-09-07T00:47:53;7.55;;;5.00;;
81912;SDS011;71377;50.698;7.164;2023-09-07T00:50:20;6.55;;;4.60;;
81912;SDS011;71377;50.698;7.164;2023-09-07T00:52:47;8.23;;;5.38;;
81912;SDS011;71377;50.698;7.164;2023-09-07T00:55:14;7.55;;;5.00;;
81912;SDS011;71377;50.698;7.164;2023-09-07T00:57:41;9.35;;;4.97;;
81912;SDS011;71377;50.698;7.164;2023-09-07T01:00:09;6.82;;;5.32;;
81912;SDS011;71377;50.698;7.164;2023-09-07T01:02:36;6.20;;;4.93;;
81912;SDS011;71377;50.698;7.164;2023-09-07T01:05:03;5.90;;;4.82;;
81912;SDS011;71377;50.698;7.164;2023-09-07T01:07:37;5.93;;;4.90;;
81912;SDS011;71377;50.698;7.164;2023-09-07T01:10:06;8.75;;;5.00;;
81912;SDS011;71377;50.698;7.164;2023-09-07T01:12:34;7.45;;;5.28;;
81912;SDS011;71377;50.698;7.164;2023-09-07T01:15:00;7.57;;;4.97;;
81912;SDS011;71377;50.698;7.164;2023-09-07T01:17:27;9.07;;;5.38;;
81912;SDS011;71377;50.698;7.164;2023-09-07T01:19:54;6.85;;;5.03;;
81912;SDS011;71377;50.698;7.164;2023-09-07T01:22:25;7.10;;;4.90;;
81912;SDS011;71377;50.698;7.164;2023-09-07T01:24:52;8.43;;;4.90;;
81912;SDS011;71377;50.698;7.164;2023-09-07T01:27:19;10.32;;;4.90;;
81912;SDS011;71377;50.698;7.164;2023-09-07T01:29:45;7.78;;;5.07;;
81912;SDS011;71377;50.698;7.164;2023-09-07T01:32:12;6.60;;;5.35;;
81912;SDS011;71377;50.698;7.164;2023-09-07T01:34:39;6.80;;;4.68;;
81912;SDS011;71377;50.698;7.164;2023-09-07T01:37:07;8.07;;;5.53;;
81912;SDS011;71377;50.698;7.164;2023-09-07T01:39:33;6.65;;;4.95;;
81912;SDS011;71377;50.698;7.164;2023-09-07T01:42:00;6.65;;;5.30;;
81912;SDS011;71377;50.698;7.164;2023-09-07T01:44:26;8.63;;;5.50;;
81912;SDS011;71377;50.698;7.164;2023-09-07T01:46:53;6.22;;;4.85;;
81912;SDS011;71377;50.698;7.164;2023-09-07T01:49:19;6.63;;;5.35;;
81912;SDS011;71377;50.698;7.164;2023-09-07T01:51:46;12.20;;;5.55;;
81912;SDS011;71377;50.698;7.164;2023-09-07T01:54:12;7.38;;;4.95;;
81912;SDS011;71377;50.698;7.164;2023-09-07T01:56:38;6.68;;;5.25;;
81912;SDS011;71377;50.698;7.164;2023-09-07T01:59:07;6.15;;;4.90;;
81912;SDS011;71377;50.698;7.164;2023-09-07T02:01:34;7.18;;;5.63;;
81912;SDS011;71377;50.698;7.164;2023-09-07T02:04:03;8.82;;;6.03;;
81912;SDS011;71377;50.698;7.164;2023-09-07T02:06:29;6.38;;;5.22;;
81912;SDS011;71377;50.698;7.164;2023-09-07T02:08:56;6.55;;;5.22;;
81912;SDS011;71377;50.698;7.164;2023-09-07T02:11:22;6.13;;;4.97;;
81912;SDS011;71377;50.698;7.164;2023-09-07T02:13:51;7.00;;;5.10;;
81912;SDS011;71377;50.698;7.164;2023-09-07T02:16:17;6.85;;;4.70;;
81912;SDS011;71377;50.698;7.164;2023-09-07T02:18:44;6.30;;;4.93;;
81912;SDS011;71377;50.698;7.164;2023-09-07T02:21:13;6.55;;;5.30;;
81912;SDS011;71377;50.698;7.164;2023-09-07T02:23:39;6.85;;;5.47;;
81912;SDS011;71377;50.698;7.164;2023-09-07T02:26:06;8.77;;;5.97;;
81912;SDS011;71377;50.698;7.164;2023-09-07T02:28:33;8.55;;;5.35;;
81912;SDS011;71377;50.698;7.164;2023-09-07T02:31:05;7.82;;;5.25;;
81912;SDS011;71377;50.698;7.164;2023-09-07T02:33:32;7.88;;;5.70;;
81912;SDS011;71377;50.698;7.164;2023-09-07T02:35:59;5.60;;;5.05;;
81912;SDS011;71377;50.698;7.164;2023-09-07T02:38:26;6.53;;;5.30;;
81912;SDS011;71377;50.698;7.164;2023-09-07T02:40:52;6.93;;;5.30;;
81912;SDS011;71377;50.698;7.164;2023-09-07T02:43:21;6.30;;;5.35;;
81912;SDS011;71377;50.698;7.164;2023-09-07T02:45:48;10.20;;;5.40;;
81912;SDS011;71377;50.698;7.164;2023-09-07T02:48:16;6.45;;;5.13;;
81912;SDS011;71377;50.698;7.164;2023-09-07T02:50:42;9.35;;;5.07;;
81912;SDS011;71377;50.698;7.164;2023-09-07T02:53:11;6.20;;;5.50;;
81912;SDS011;71377;50.698;7.164;2023-09-07T02:55:39;6.68;;;5.50;;
81912;SDS011;71377;50.698;7.164;2023-09-07T02:58:05;6.80;;;5.30;;
81912;SDS011;71377;50.698;7.164;2023-09-07T03:00:32;7.57;;;5.13;;
81912;SDS011;71377;50.698;7.164;2023-09-07T03:02:58;6.43;;;5.32;;
81912;SDS011;71377;50.698;7.164;2023-09-07T03:05:26;9.18;;;5.25;;
81912;SDS011;71377;50.698;7.164;2023-09-07T03:07:54;9.45;;;5.47;;
81912;SDS011;71377;50.698;7.164;2023-09-07T03:10:20;6.97;;;5.25;;
81912;SDS011;71377;50.698;7.164;2023-09-07T03:12:47;7.60;;;5.40;;
81912;SDS011;71377;50.698;7.164;2023-09-07T03:15:13;7.07;;;5.38;;
81912;SDS011;71377;50.698;7.164;2023-09-07T03:17:39;6.07;;;5.43;;
81912;SDS011;71377;50.698;7.164;2023-09-07T03:20:06;6.13;;;5.35;;
81912;SDS011;71377;50.698;7.164;2023-09-07T03:22:41;7.07;;;5.50;;
81912;SDS011;71377;50.698;7.164;2023-09-07T03:25:08;7.95;;;5.47;;
81912;SDS011;71377;50.698;7.164;2023-09-07T03:27:36;6.88;;;5.38;;
81912;SDS011;71377;50.698;7.164;2023-09-07T03:30:03;11.45;;;5.55;;
81912;SDS011;71377;50.698;7.164;2023-09-07T03:32:32;7.43;;;5.78;;
81912;SDS011;71377;50.698;7.164;2023-09-07T03:34:59;5.97;;;5.32;;
81912;SDS011;71377;50.698;7.164;2023-09-07T03:37:29;7.97;;;5.13;;
81912;SDS011;71377;50.698;7.164;2023-09-07T03:39:56;7.88;;;5.28;;
81912;SDS011;71377;50.698;7.164;2023-09-07T03:42:22;8.73;;;5.47;;
81912;SDS011;71377;50.698;7.164;2023-09-07T03:44:49;8.70;;;5.88;;
81912;SDS011;71377;50.698;7.164;2023-09-07T03:47:16;6.88;;;5.78;;
81912;SDS011;71377;50.698;7.164;2023-09-07T03:49:42;9.30;;;5.95;;
81912;SDS011;71377;50.698;7.164;2023-09-07T03:52:09;11.18;;;6.15;;
81912;SDS011;71377;50.698;7.164;2023-09-07T03:54:35;10.68;;;6.35;;
81912;SDS011;71377;50.698;7.164;2023-09-07T03:57:02;8.32;;;6.57;;
81912;SDS011;71377;50.698;7.164;2023-09-07T03:59:29;12.30;;;6.72;;
81912;SDS011;71377;50.698;7.164;2023-09-07T04:01:55;7.82;;;6.00;;
81912;SDS011;71377;50.698;7.164;2023-09-07T04:04:22;9.05;;;5.78;;
81912;SDS011;71377;50.698;7.164;2023-09-07T04:06:49;8.75;;;5.90;;
81912;SDS011;71377;50.698;7.164;2023-09-07T04:09:15;9.32;;;5.35;;
81912;SDS011;71377;50.698;7.164;2023-09-07T04:11:42;8.13;;;5.63;;
81912;SDS011;71377;50.698;7.164;2023-09-07T04:14:08;6.60;;;5.43;;
81912;SDS011;71377;50.698;7.164;2023-09-07T04:16:35;8.80;;;6.32;;
81912;SDS011;71377;50.698;7.164;2023-09-07T04:19:01;8.55;;;5.93;;
81912;SDS011;71377;50.698;7.164;2023-09-07T04:21:28;7.72;;;5.80;;
81912;SDS011;71377;50.698;7.164;2023-09-07T04:23:54;8.38;;;6.00;;
81912;SDS011;71377;50.698;7.164;2023-09-07T04:26:20;8.75;;;5.53;;
81912;SDS011;71377;50.698;7.164;2023-09-07T04:28:47;6.25;;;5.30;;
81912;SDS011;71377;50.698;7.164;2023-09-07T04:31:13;8.25;;;5.82;;
81912;SDS011;71377;50.698;7.164;2023-09-07T04:33:40;8.57;;;6.38;;
81912;SDS011;71377;50.698;7.164;2023-09-07T04:36:10;8.40;;;6.50;;
81912;SDS011;71377;50.698;7.164;2023-09-07T04:38:37;8.18;;;6.57;;
81912;SDS011;71377;50.698;7.164;2023-09-07T04:43:34;8.10;;;6.47;;
81912;SDS011;71377;50.698;7.164;2023-09-07T04:46:01;9.40;;;6.22;;
81912;SDS011;71377;50.698;7.164;2023-09-07T04:48:28;10.10;;;6.05;;
81912;SDS011;71377;50.698;7.164;2023-09-07T04:50:59;8.32;;;6.15;;
81912;SDS011;71377;50.698;7.164;2023-09-07T04:53:27;8.38;;;6.22;;
81912;SDS011;71377;50.698;7.164;2023-09-07T04:55:54;10.55;;;6.20;;
81912;SDS011;71377;50.698;7.164;2023-09-07T04:58:21;8.75;;;6.18;;
81912;SDS011;71377;50.698;7.164;2023-09-07T05:00:48;7.47;;;5.53;;
81912;SDS011;71377;50.698;7.164;2023-09-07T05:03:14;7.45;;;5.80;;
81912;SDS011;71377;50.698;7.164;2023-09-07T05:05:41;7.80;;;5.95;;
81912;SDS011;71377;50.698;7.164;2023-09-07T05:08:09;7.45;;;5.82;;
81912;SDS011;71377;50.698;7.164;2023-09-07T05:10:36;8.90;;;6.20;;
81912;SDS011;71377;50.698;7.164;2023-09-07T05:13:05;6.20;;;5.47;;
81912;SDS011;71377;50.698;7.164;2023-09-07T05:15:31;6.70;;;5.50;;
81912;SDS011;71377;50.698;7.164;2023-09-07T05:17:58;6.78;;;5.47;;
81912;SDS011;71377;50.698;7.164;2023-09-07T05:20:24;7.72;;;6.03;;
81912;SDS011;71377;50.698;7.164;2023-09-07T05:22:52;5.88;;;5.28;;
81912;SDS011;71377;50.698;7.164;2023-09-07T05:25:19;7.82;;;5.93;;
81912;SDS011;71377;50.698;7.164;2023-09-07T05:27:46;6.93;;;5.97;;
81912;SDS011;71377;50.698;7.164;2023-09-07T05:30:12;8.02;;;6.03;;
81912;SDS011;71377;50.698;7.164;2023-09-07T05:32:39;8.00;;;6.18;;
81912;SDS011;71377;50.698;7.164;2023-09-07T05:35:08;6.32;;;5.45;;
81912;SDS011;71377;50.698;7.164;2023-09-07T05:37:36;7.70;;;5.90;;
81912;SDS011;71377;50.698;7.164;2023-09-07T05:40:03;9.68;;;5.60;;
81912;SDS011;71377;50.698;7.164;2023-09-07T05:42:30;12.40;;;5.60;;
81912;SDS011;71377;50.698;7.164;2023-09-07T05:44:56;7.20;;;5.50;;
81912;SDS011;71377;50.698;7.164;2023-09-07T05:47:23;7.38;;;5.88;;
81912;SDS011;71377;50.698;7.164;2023-09-07T05:49:52;8.57;;;5.85;;
81912;SDS011;71377;50.698;7.164;2023-09-07T05:52:18;7.47;;;5.43;;
81912;SDS011;71377;50.698;7.164;2023-09-07T05:54:45;7.07;;;5.50;;
81912;SDS011;71377;50.698;7.164;2023-09-07T05:57:11;5.85;;;4.70;;
81912;SDS011;71377;50.698;7.164;2023-09-07T05:59:38;8.55;;;5.78;;
81912;SDS011;71377;50.698;7.164;2023-09-07T06:02:04;7.82;;;5.10;;
81912;SDS011;71377;50.698;7.164;2023-09-07T06:04:31;6.47;;;5.22;;
81912;SDS011;71377;50.698;7.164;2023-09-07T06:06:57;9.20;;;5.07;;
81912;SDS011;71377;50.698;7.164;2023-09-07T06:09:24;8.27;;;4.93;;
81912;SDS011;71377;50.698;7.164;2023-09-07T06:11:51;6.18;;;4.80;;
81912;SDS011;71377;50.698;7.164;2023-09-07T06:14:17;7.40;;;5.28;;
81912;SDS011;71377;50.698;7.164;2023-09-07T06:16:44;9.07;;;5.63;;
81912;SDS011;71377;50.698;7.164;2023-09-07T06:19:10;7.53;;;5.55;;
81912;SDS011;71377;50.698;7.164;2023-09-07T06:21:36;9.23;;;5.25;;
81912;SDS011;71377;50.698;7.164;2023-09-07T06:24:03;9.63;;;5.35;;
81912;SDS011;71377;50.698;7.164;2023-09-07T06:26:32;8.27;;;5.53;;
81912;SDS011;71377;50.698;7.164;2023-09-07T06:28:58;5.90;;;5.20;;
81912;SDS011;71377;50.698;7.164;2023-09-07T06:31:25;11.35;;;6.10;;
81912;SDS011;71377;50.698;7.164;2023-09-07T06:33:51;8.02;;;5.85;;
81912;SDS011;71377;50.698;7.164;2023-09-07T06:36:18;7.05;;;5.53;;
81912;SDS011;71377;50.698;7.164;2023-09-07T06:38:59;7.57;;;5.78;;
81912;SDS011;71377;50.698;7.164;2023-09-07T06:41:25;9.05;;;5.65;;
81912;SDS011;71377;50.698;7.164;2023-09-07T06:43:52;9.35;;;5.13;;
81912;SDS011;71377;50.698;7.164;2023-09-07T06:46:19;12.48;;;5.80;;
81912;SDS011;71377;50.698;7.164;2023-09-07T06:48:45;6.95;;;5.32;;
81912;SDS011;71377;50.698;7.164;2023-09-07T06:51:11;9.02;;;5.30;;
81912;SDS011;71377;50.698;7.164;2023-09-07T06:53:38;9.45;;;5.43;;
81912;SDS011;71377;50.698;7.164;2023-09-07T06:56:22;10.50;;;4.65;;
81912;SDS011;71377;50.698;7.164;2023-09-07T06:58:49;6.90;;;4.95;;
81912;SDS011;71377;50.698;7.164;2023-09-07T07:01:15;6.53;;;5.00;;
81912;SDS011;71377;50.698;7.164;2023-09-07T07:03:42;5.18;;;4.32;;
81912;SDS011;71377;50.698;7.164;2023-09-07T07:06:09;7.32;;;4.60;;
81912;SDS011;71377;50.698;7.164;2023-09-07T07:08:35;8.15;;;4.65;;
81912;SDS011;71377;50.698;7.164;2023-09-07T07:11:02;8.52;;;4.60;;
81912;SDS011;71377;50.698;7.164;2023-09-07T07:13:28;5.45;;;4.38;;
81912;SDS011;71377;50.698;7.164;2023-09-07T07:15:57;6.85;;;4.18;;
81912;SDS011;71377;50.698;7.164;2023-09-07T07:18:35;7.03;;;4.20;;
81912;SDS011;71377;50.698;7.164;2023-09-07T07:21:02;7.00;;;4.50;;
81912;SDS011;71377;50.698;7.164;2023-09-07T07:23:28;6.82;;;4.10;;
81912;SDS011;71377;50.698;7.164;2023-09-07T07:25:55;9.35;;;4.30;;
81912;SDS011;71377;50.698;7.164;2023-09-07T07:28:22;9.88;;;4.35;;
81912;SDS011;71377;50.698;7.164;2023-09-07T07:30:48;5.18;;;3.85;;
81912;SDS011;71377;50.698;7.164;2023-09-07T07:33:15;6.38;;;3.83;;
81912;SDS011;71377;50.698;7.164;2023-09-07T07:35:41;6.65;;;3.75;;
81912;SDS011;71377;50.698;7.164;2023-09-07T07:38:09;5.47;;;3.85;;
81912;SDS011;71377;50.698;7.164;2023-09-07T07:40:39;4.43;;;3.50;;
81912;SDS011;71377;50.698;7.164;2023-09-07T07:43:06;6.18;;;3.50;;
81912;SDS011;71377;50.698;7.164;2023-09-07T07:45:33;7.15;;;3.80;;
81912;SDS011;71377;50.698;7.164;2023-09-07T07:48:04;6.50;;;3.70;;
81912;SDS011;71377;50.698;7.164;2023-09-07T07:50:38;7.43;;;3.33;;
81912;SDS011;71377;50.698;7.164;2023-09-07T07:53:07;6.15;;;3.40;;
81912;SDS011;71377;50.698;7.164;2023-09-07T07:55:36;5.50;;;3.30;;
81912;SDS011;71377;50.698;7.164;2023-09-07T07:58:05;4.35;;;3.35;;
81912;SDS011;71377;50.698;7.164;2023-09-07T08:00:38;6.03;;;3.45;;
81912;SDS011;71377;50.698;7.164;2023-09-07T08:03:07;5.78;;;3.67;;
81912;SDS011;71377;50.698;7.164;2023-09-07T08:05:34;5.05;;;3.55;;
81912;SDS011;71377;50.698;7.164;2023-09-07T08:08:01;11.85;;;3.47;;
81912;SDS011;71377;50.698;7.164;2023-09-07T08:10:28;3.40;;;3.10;;
81912;SDS011;71377;50.698;7.164;2023-09-07T08:12:57;7.00;;;3.65;;
81912;SDS011;71377;50.698;7.164;2023-09-07T08:15:24;6.20;;;3.60;;
81912;SDS011;71377;50.698;7.164;2023-09-07T08:17:51;5.43;;;3.30;;
81912;SDS011;71377;50.698;7.164;2023-09-07T08:20:19;8.23;;;3.55;;
81912;SDS011;71377;50.698;7.164;2023-09-07T08:22:46;4.78;;;3.60;;
81912;SDS011;71377;50.698;7.164;2023-09-07T08:25:13;4.70;;;3.10;;
81912;SDS011;71377;50.698;7.164;2023-09-07T08:27:40;4.60;;;3.35;;
81912;SDS011;71377;50.698;7.164;2023-09-07T08:30:12;7.45;;;3.00;;
81912;SDS011;71377;50.698;7.164;2023-09-07T08:32:42;8.15;;;3.65;;
81912;SDS011;71377;50.698;7.164;2023-09-07T08:35:12;7.07;;;3.35;;
81912;SDS011;71377;50.698;7.164;2023-09-07T08:37:40;7.18;;;3.53;;
81912;SDS011;71377;50.698;7.164;2023-09-07T08:40:07;5.53;;;3.28;;
81912;SDS011;71377;50.698;7.164;2023-09-07T08:42:37;5.18;;;3.20;;
81912;SDS011;71377;50.698;7.164;2023-09-07T08:45:08;4.30;;;3.05;;
81912;SDS011;71377;50.698;7.164;2023-09-07T08:47:35;3.50;;;2.90;;
81912;SDS011;71377;50.698;7.164;2023-09-07T08:50:04;5.82;;;3.15;;
81912;SDS011;71377;50.698;7.164;2023-09-07T08:52:36;5.30;;;3.03;;
81912;SDS011;71377;50.698;7.164;2023-09-07T08:55:03;9.00;;;3.40;;
81912;SDS011;71377;50.698;7.164;2023-09-07T08:57:32;6.93;;;3.67;;
81912;SDS011;71377;50.698;7.164;2023-09-07T09:00:00;6.68;;;3.17;;
81912;SDS011;71377;50.698;7.164;2023-09-07T09:02:45;5.13;;;3.20;;
81912;SDS011;71377;50.698;7.164;2023-09-07T09:05:22;8.05;;;3.35;;
81912;SDS011;71377;50.698;7.164;2023-09-07T09:07:49;7.10;;;3.58;;
81912;SDS011;71377;50.698;7.164;2023-09-07T09:10:27;10.43;;;3.40;;
81912;SDS011;71377;50.698;7.164;2023-09-07T09:12:54;4.55;;;3.50;;
81912;SDS011;71377;50.698;7.164;2023-09-07T09:15:23;4.57;;;3.08;;
81912;SDS011;71377;50.698;7.164;2023-09-07T09:17:49;5.70;;;3.20;;
81912;SDS011;71377;50.698;7.164;2023-09-07T09:20:20;3.92;;;3.00;;
81912;SDS011;71377;50.698;7.164;2023-09-07T09:22:51;3.63;;;3.03;;
81912;SDS011;71377;50.698;7.164;2023-09-07T09:25:20;5.38;;;3.28;;
81912;SDS011;71377;50.698;7.164;2023-09-07T09:27:49;7.65;;;3.08;;
81912;SDS011;71377;50.698;7.164;2023-09-07T09:30:15;4.22;;;3.00;;
81912;SDS011;71377;50.698;7.164;2023-09-07T09:32:43;4.00;;;2.80;;
81912;SDS011;71377;50.698;7.164;2023-09-07T09:35:09;5.22;;;3.22;;
81912;SDS011;71377;50.698;7.164;2023-09-07T09:37:44;8.93;;;3.20;;
81912;SDS011;71377;50.698;7.164;2023-09-07T09:40:12;6.13;;;3.08;;
81912;SDS011;71377;50.698;7.164;2023-09-07T09:42:41;3.58;;;2.88;;
81912;SDS011;71377;50.698;7.164;2023-09-07T09:45:08;5.13;;;2.90;;
81912;SDS011;71377;50.698;7.164;2023-09-07T09:47:38;4.18;;;2.88;;
81912;SDS011;71377;50.698;7.164;2023-09-07T09:50:06;5.00;;;3.05;;
81912;SDS011;71377;50.698;7.164;2023-09-07T09:52:34;5.43;;;3.20;;
81912;SDS011;71377;50.698;7.164;2023-09-07T09:55:05;6.70;;;3.20;;
81912;SDS011;71377;50.698;7.164;2023-09-07T09:57:39;5.50;;;3.15;;
81912;SDS011;71377;50.698;7.164;2023-09-07T10:00:06;5.55;;;3.22;;
81912;SDS011;71377;50.698;7.164;2023-09-07T10:02:44;9.82;;;2.78;;
81912;SDS011;71377;50.698;7.164;2023-09-07T10:05:17;4.45;;;2.95;;
81912;SDS011;71377;50.698;7.164;2023-09-07T10:07:48;4.75;;;3.35;;
81912;SDS011;71377;50.698;7.164;2023-09-07T10:10:18;4.78;;;3.03;;
81912;SDS011;71377;50.698;7.164;2023-09-07T10:12:54;4.53;;;2.45;;
81912;SDS011;71377;50.698;7.164;2023-09-07T10:15:26;4.78;;;2.83;;
81912;SDS011;71377;50.698;7.164;2023-09-07T10:20:59;6.50;;;2.80;;
81912;SDS011;71377;50.698;7.164;2023-09-07T10:23:42;5.30;;;3.00;;
81912;SDS011;71377;50.698;7.164;2023-09-07T10:26:19;4.65;;;2.90;;
81912;SDS011;71377;50.698;7.164;2023-09-07T10:28:58;4.47;;;2.85;;
81912;SDS011;71377;50.698;7.164;2023-09-07T10:31:26;3.03;;;2.65;;
81912;SDS011;71377;50.698;7.164;2023-09-07T10:34:13;3.95;;;2.70;;
81912;SDS011;71377;50.698;7.164;2023-09-07T10:36:40;4.22;;;2.40;;
81912;SDS011;71377;50.698;7.164;2023-09-07T10:39:06;3.33;;;2.80;;
81912;SDS011;71377;50.698;7.164;2023-09-07T10:41:42;4.47;;;2.75;;
81912;SDS011;71377;50.698;7.164;2023-09-07T10:46:37;2.78;;;2.47;;
81912;SDS011;71377;50.698;7.164;2023-09-07T10:49:06;6.25;;;2.85;;
81912;SDS011;71377;50.698;7.164;2023-09-07T10:51:45;6.18;;;2.50;;
81912;SDS011;71377;50.698;7.164;2023-09-07T10:54:13;4.57;;;2.53;;
81912;SDS011;71377;50.698;7.164;2023-09-07T10:56:44;4.65;;;2.72;;
81912;SDS011;71377;50.698;7.164;2023-09-07T10:59:14;3.65;;;2.45;;
81912;SDS011;71377;50.698;7.164;2023-09-07T11:01:45;5.80;;;2.38;;
81912;SDS011;71377;50.698;7.164;2023-09-07T11:04:14;2.63;;;2.28;;
81912;SDS011;71377;50.698;7.164;2023-09-07T11:06:43;4.75;;;2.30;;
81912;SDS011;71377;50.698;7.164;2023-09-07T11:09:11;4.07;;;2.70;;
81912;SDS011;71377;50.698;7.164;2023-09-07T11:11:38;3.95;;;2.10;;
81912;SDS011;71377;50.698;7.164;2023-09-07T11:14:05;2.92;;;2.20;;
81912;SDS011;71377;50.698;7.164;2023-09-07T11:16:33;4.85;;;2.53;;
81912;SDS011;71377;50.698;7.164;2023-09-07T11:19:02;2.72;;;2.30;;
81912;SDS011;71377;50.698;7.164;2023-09-07T11:21:31;2.55;;;2.22;;
81912;SDS011;71377;50.698;7.164;2023-09-07T11:24:02;4.90;;;2.40;;
81912;SDS011;71377;50.698;7.164;2023-09-07T11:26:44;3.50;;;2.10;;
81912;SDS011;71377;50.698;7.164;2023-09-07T11:29:13;4.85;;;2.47;;
81912;SDS011;71377;50.698;7.164;2023-09-07T11:31:43;4.07;;;2.42;;
81912;SDS011;71377;50.698;7.164;2023-09-07T11:34:11;5.55;;;2.58;;
81912;SDS011;71377;50.698;7.164;2023-09-07T11:36:39;3.58;;;2.20;;
81912;SDS011;71377;50.698;7.164;2023-09-07T11:39:06;4.35;;;2.55;;
81912;SDS011;71377;50.698;7.164;2023-09-07T11:41:42;8.10;;;2.40;;
81912;SDS011;71377;50.698;7.164;2023-09-07T11:44:10;3.00;;;2.30;;
81912;SDS011;71377;50.698;7.164;2023-09-07T11:46:37;3.80;;;2.13;;
81912;SDS011;71377;50.698;7.164;2023-09-07T11:49:04;4.90;;;2.47;;
81912;SDS011;71377;50.698;7.164;2023-09-07T11:51:32;3.70;;;2.30;;
81912;SDS011;71377;50.698;7.164;2023-09-07T11:53:58;3.20;;;2.15;;
81912;SDS011;71377;50.698;7.164;2023-09-07T11:56:25;2.47;;;2.20;;
81912;SDS011;71377;50.698;7.164;2023-09-07T11:58:53;3.00;;;2.20;;
81912;SDS011;71377;50.698;7.164;2023-09-07T12:01:19;3.85;;;2.10;;
81912;SDS011;71377;50.698;7.164;2023-09-07T12:03:46;3.45;;;2.33;;
81912;SDS011;71377;50.698;7.164;2023-09-07T12:06:13;3.72;;;2.10;;
81912;SDS011;71377;50.698;7.164;2023-09-07T12:08:57;2.55;;;2.10;;
81912;SDS011;71377;50.698;7.164;2023-09-07T12:11:31;4.07;;;2.08;;
81912;SDS011;71377;50.698;7.164;2023-09-07T12:13:57;2.63;;;2.10;;
81912;SDS011;71377;50.698;7.164;2023-09-07T12:16:27;2.42;;;2.20;;
81912;SDS011;71377;50.698;7.164;2023-09-07T12:18:54;6.15;;;2.22;;
81912;SDS011;71377;50.698;7.164;2023-09-07T12:21:21;4.20;;;2.30;;
81912;SDS011;71377;50.698;7.164;2023-09-07T12:23:47;4.07;;;2.10;;
81912;SDS011;71377;50.698;7.164;2023-09-07T12:26:14;3.38;;;2.50;;
81912;SDS011;71377;50.698;7.164;2023-09-07T12:28:41;3.38;;;2.22;;
81912;SDS011;71377;50.698;7.164;2023-09-07T12:31:07;2.80;;;2.17;;
81912;SDS011;71377;50.698;7.164;2023-09-07T12:33:34;4.00;;;2.10;;
81912;SDS011;71377;50.698;7.164;2023-09-07T12:36:02;2.42;;;2.03;;
81912;SDS011;71377;50.698;7.164;2023-09-07T12:38:28;2.95;;;2.35;;
81912;SDS011;71377;50.698;7.164;2023-09-07T12:40:55;2.40;;;2.20;;
81912;SDS011;71377;50.698;7.164;2023-09-07T12:43:22;2.22;;;2.00;;
81912;SDS011;71377;50.698;7.164;2023-09-07T12:45:51;4.43;;;2.20;;
81912;SDS011;71377;50.698;7.164;2023-09-07T12:48:17;3.17;;;2.15;;
81912;SDS011;71377;50.698;7.164;2023-09-07T12:50:44;4.55;;;2.15;;
81912;SDS011;71377;50.698;7.164;2023-09-07T12:53:10;3.80;;;1.95;;
81912;SDS011;71377;50.698;7.164;2023-09-07T12:55:39;3.60;;;2.10;;
81912;SDS011;71377;50.698;7.164;2023-09-07T12:58:06;3.63;;;2.10;;
81912;SDS011;71377;50.698;7.164;2023-09-07T13:00:33;4.97;;;2.50;;
81912;SDS011;71377;50.698;7.164;2023-09-07T13:03:00;2.53;;;1.90;;
81912;SDS011;71377;50.698;7.164;2023-09-07T13:05:27;5.78;;;2.00;;
81912;SDS011;71377;50.698;7.164;2023-09-07T13:07:53;2.40;;;2.20;;
81912;SDS011;71377;50.698;7.164;2023-09-07T13:10:20;2.63;;;2.15;;
81912;SDS011;71377;50.698;7.164;2023-09-07T13:12:47;2.33;;;2.00;;
81912;SDS011;71377;50.698;7.164;2023-09-07T13:15:13;3.60;;;2.20;;
81912;SDS011;71377;50.698;7.164;2023-09-07T13:17:39;2.45;;;1.90;;
81912;SDS011;71377;50.698;7.164;2023-09-07T13:20:06;2.53;;;1.98;;
81912;SDS011;71377;50.698;7.164;2023-09-07T13:22:33;2.90;;;1.80;;
81912;SDS011;71377;50.698;7.164;2023-09-07T13:24:59;3.10;;;2.20;;
81912;SDS011;71377;50.698;7.164;2023-09-07T13:27:27;5.10;;;2.10;;
81912;SDS011;71377;50.698;7.164;2023-09-07T13:29:53;6.78;;;2.25;;
81912;SDS011;71377;50.698;7.164;2023-09-07T13:32:20;2.95;;;1.80;;
81912;SDS011;71377;50.698;7.164;2023-09-07T13:34:46;4.03;;;2.38;;
81912;SDS011;71377;50.698;7.164;2023-09-07T13:37:12;2.53;;;2.13;;
81912;SDS011;71377;50.698;7.164;2023-09-07T13:39:39;2.47;;;1.73;;
81912;SDS011;71377;50.698;7.164;2023-09-07T13:42:06;3.17;;;2.13;;
81912;SDS011;71377;50.698;7.164;2023-09-07T13:44:33;1.90;;;1.75;;
81912;SDS011;71377;50.698;7.164;2023-09-07T13:46:59;5.88;;;2.38;;
81912;SDS011;71377;50.698;7.164;2023-09-07T13:49:26;3.67;;;2.28;;
81912;SDS011;71377;50.698;7.164;2023-09-07T13:51:52;3.60;;;1.70;;
81912;SDS011;71377;50.698;7.164;2023-09-07T13:54:19;3.53;;;2.20;;
81912;SDS011;71377;50.698;7.164;2023-09-07T13:56:46;2.63;;;2.00;;
81912;SDS011;71377;50.698;7.164;2023-09-07T13:59:13;3.83;;;2.00;;
81912;SDS011;71377;50.698;7.164;2023-09-07T14:01:39;3.65;;;2.08;;
81912;SDS011;71377;50.698;7.164;2023-09-07T14:04:06;7.57;;;1.98;;
81912;SDS011;71377;50.698;7.164;2023-09-07T14:06:33;5.32;;;2.00;;
81912;SDS011;71377;50.698;7.164;2023-09-07T14:08:59;3.35;;;2.00;;
81912;SDS011;71377;50.698;7.164;2023-09-07T14:11:26;2.47;;;1.90;;
81912;SDS011;71377;50.698;7.164;2023-09-07T14:13:53;3.03;;;1.98;;
81912;SDS011;71377;50.698;7.164;2023-09-07T14:16:21;3.60;;;2.30;;
81912;SDS011;71377;50.698;7.164;2023-09-07T14:18:47;2.65;;;2.00;;
81912;SDS011;71377;50.698;7.164;2023-09-07T14:21:15;3.38;;;1.98;;
81912;SDS011;71377;50.698;7.164;2023-09-07T14:23:42;4.00;;;1.90;;
81912;SDS011;71377;50.698;7.164;2023-09-07T14:26:09;2.90;;;2.03;;
81912;SDS011;71377;50.698;7.164;2023-09-07T14:28:36;2.47;;;1.70;;
81912;SDS011;71377;50.698;7.164;2023-09-07T14:31:04;4.78;;;2.17;;
81912;SDS011;71377;50.698;7.164;2023-09-07T14:33:33;4.70;;;2.05;;
81912;SDS011;71377;50.698;7.164;2023-09-07T14:36:03;2.92;;;1.75;;
81912;SDS011;71377;50.698;7.164;2023-09-07T14:38:29;4.00;;;1.90;;
81912;SDS011;71377;50.698;7.164;2023-09-07T14:40:57;2.08;;;1.73;;
81912;SDS011;71377;50.698;7.164;2023-09-07T14:43:23;2.55;;;1.83;;
81912;SDS011;71377;50.698;7.164;2023-09-07T14:45:49;3.65;;;1.90;;
81912;SDS011;71377;50.698;7.164;2023-09-07T14:48:16;2.78;;;2.20;;
81912;SDS011;71377;50.698;7.164;2023-09-07T14:50:43;6.03;;;1.98;;
81912;SDS011;71377;50.698;7.164;2023-09-07T14:53:09;2.20;;;1.60;;
81912;SDS011;71377;50.698;7.164;2023-09-07T14:55:35;2.30;;;2.00;;
81912;SDS011;71377;50.698;7.164;2023-09-07T14:58:02;6.25;;;2.30;;
81912;SDS011;71377;50.698;7.164;2023-09-07T15:00:31;3.63;;;2.15;;